LGTP weather

Tripolis Airport
TrĂ­poli, Arcadia, Greece

Public forecast

Using degrees Celsius for public forecast. Weather courtesy of forecast.io.

METAR (pilot weather report)

Closest report is Kalamata Airport, 33.1 nm (61.3 km) SSW. Retrieved 2018/09/23 11:20 UTC (27 minutes ago):

LGKL 231120Z 17008KT 9999 FEW030 29/16 Q1018

TAF (pilot weather forecast)

Forecast is more than 12 hours old.

Closest forecast is Kalamata Airport, 33.1 nm (61.3 km) SSW. Retrieved 2017/11/06 03:12 UTC (11 months ago):

TAF COR LGKL 060303Z 0603/0615 VRB03KT 9999 SCT030 BKN080 PROB40 TEMPO 0605/0608 5000 BR PROB30 TEMPO 0605/0609 5000 RA SCT020 BKN025 BKN070